sensor_id;sensor_type;location;lat;lon;timestamp;temperature;humidity
8798;DHT22;4435;50.898;4.734;2023-02-15T00:01:48;19.00;99.90
8798;DHT22;4435;50.898;4.734;2023-02-15T00:04:16;19.00;99.90
8798;DHT22;4435;50.898;4.734;2023-02-15T00:06:42;18.90;99.90
8798;DHT22;4435;50.898;4.734;2023-02-15T00:09:09;18.90;99.90
8798;DHT22;4435;50.898;4.734;2023-02-15T00:11:35;18.90;99.90
8798;DHT22;4435;50.898;4.734;2023-02-15T00:14:21;18.90;99.90
8798;DHT22;4435;50.898;4.734;2023-02-15T00:16:49;18.80;99.90
8798;DHT22;4435;50.898;4.734;2023-02-15T00:19:17;18.80;99.90
8798;DHT22;4435;50.898;4.734;2023-02-15T00:21:43;18.80;99.90
8798;DHT22;4435;50.898;4.734;2023-02-15T00:24:11;18.80;99.90
8798;DHT22;4435;50.898;4.734;2023-02-15T00:26:38;18.80;99.90
8798;DHT22;4435;50.898;4.734;2023-02-15T00:29:04;18.80;99.90
8798;DHT22;4435;50.898;4.734;2023-02-15T00:31:31;18.80;99.90
8798;DHT22;4435;50.898;4.734;2023-02-15T00:34:12;18.70;99.90
8798;DHT22;4435;50.898;4.734;2023-02-15T00:36:38;18.70;99.90
8798;DHT22;4435;50.898;4.734;2023-02-15T00:39:05;18.70;99.90
8798;DHT22;4435;50.898;4.734;2023-02-15T00:41:31;18.70;99.90
8798;DHT22;4435;50.898;4.734;2023-02-15T00:43:57;18.70;99.90
8798;DHT22;4435;50.898;4.734;2023-02-15T00:46:23;18.70;99.90
8798;DHT22;4435;50.898;4.734;2023-02-15T00:48:49;18.70;99.90
8798;DHT22;4435;50.898;4.734;2023-02-15T00:51:15;18.60;99.90
8798;DHT22;4435;50.898;4.734;2023-02-15T00:53:43;18.60;99.90
8798;DHT22;4435;50.898;4.734;2023-02-15T00:56:10;18.60;99.90
8798;DHT22;4435;50.898;4.734;2023-02-15T00:58:36;18.60;99.90
8798;DHT22;4435;50.898;4.734;2023-02-15T01:01:04;18.60;99.90
8798;DHT22;4435;50.898;4.734;2023-02-15T01:03:30;18.50;99.90
8798;DHT22;4435;50.898;4.734;2023-02-15T01:05:56;18.50;99.90
8798;DHT22;4435;50.898;4.734;2023-02-15T01:08:22;18.50;99.90
8798;DHT22;4435;50.898;4.734;2023-02-15T01:10:48;18.50;99.90
8798;DHT22;4435;50.898;4.734;2023-02-15T01:13:16;18.50;99.90
8798;DHT22;4435;50.898;4.734;2023-02-15T01:15:42;18.50;99.90
8798;DHT22;4435;50.898;4.734;2023-02-15T01:18:09;18.50;99.90
8798;DHT22;4435;50.898;4.734;2023-02-15T01:20:37;18.50;99.90
8798;DHT22;4435;50.898;4.734;2023-02-15T01:23:05;18.40;99.90
8798;DHT22;4435;50.898;4.734;2023-02-15T01:25:33;18.40;99.90
8798;DHT22;4435;50.898;4.734;2023-02-15T01:27:59;18.40;99.90
8798;DHT22;4435;50.898;4.734;2023-02-15T01:30:25;18.40;99.90
8798;DHT22;4435;50.898;4.734;2023-02-15T01:32:51;18.40;99.90
8798;DHT22;4435;50.898;4.734;2023-02-15T01:35:16;18.40;99.90
8798;DHT22;4435;50.898;4.734;2023-02-15T01:37:42;18.40;99.90
8798;DHT22;4435;50.898;4.734;2023-02-15T01:40:13;18.40;99.90
8798;DHT22;4435;50.898;4.734;2023-02-15T01:42:39;18.30;99.90
8798;DHT22;4435;50.898;4.734;2023-02-15T01:48:19;18.30;99.90
8798;DHT22;4435;50.898;4.734;2023-02-15T01:50:54;18.30;99.90
8798;DHT22;4435;50.898;4.734;2023-02-15T01:56:05;18.30;99.90
8798;DHT22;4435;50.898;4.734;2023-02-15T01:58:32;18.30;99.90
8798;DHT22;4435;50.898;4.734;2023-02-15T02:01:00;18.30;99.90
8798;DHT22;4435;50.898;4.734;2023-02-15T02:03:41;18.20;99.90
8798;DHT22;4435;50.898;4.734;2023-02-15T02:06:09;18.20;99.90
8798;DHT22;4435;50.898;4.734;2023-02-15T02:08:35;18.20;99.90
8798;DHT22;4435;50.898;4.734;2023-02-15T02:11:01;18.20;99.90
8798;DHT22;4435;50.898;4.734;2023-02-15T02:13:27;18.20;99.90
8798;DHT22;4435;50.898;4.734;2023-02-15T02:19:34;18.20;99.90
8798;DHT22;4435;50.898;4.734;2023-02-15T02:28:01;18.10;99.90
8798;DHT22;4435;50.898;4.734;2023-02-15T02:33:54;18.10;99.90
8798;DHT22;4435;50.898;4.734;2023-02-15T02:42:41;18.00;99.90
8798;DHT22;4435;50.898;4.734;2023-02-15T02:44:51;18.00;99.90
8798;DHT22;4435;50.898;4.734;2023-02-15T02:47:43;18.00;99.90
8798;DHT22;4435;50.898;4.734;2023-02-15T02:50:12;18.00;99.90
8798;DHT22;4435;50.898;4.734;2023-02-15T02:52:48;18.00;99.90
8798;DHT22;4435;50.898;4.734;2023-02-15T03:00:20;18.00;99.90
8798;DHT22;4435;50.898;4.734;2023-02-15T03:02:50;18.00;99.90
8798;DHT22;4435;50.898;4.734;2023-02-15T03:05:21;18.00;99.90
8798;DHT22;4435;50.898;4.734;2023-02-15T03:07:51;18.00;99.90
8798;DHT22;4435;50.898;4.734;2023-02-15T03:10:21;18.00;99.90
8798;DHT22;4435;50.898;4.734;2023-02-15T03:12:48;18.00;99.90
8798;DHT22;4435;50.898;4.734;2023-02-15T03:15:23;18.00;99.90
8798;DHT22;4435;50.898;4.734;2023-02-15T03:17:57;18.00;99.90
8798;DHT22;4435;50.898;4.734;2023-02-15T03:20:33;17.90;99.90
8798;DHT22;4435;50.898;4.734;2023-02-15T03:23:09;17.90;99.90
8798;DHT22;4435;50.898;4.734;2023-02-15T03:25:42;17.90;99.90
8798;DHT22;4435;50.898;4.734;2023-02-15T03:28:41;17.90;99.90
8798;DHT22;4435;50.898;4.734;2023-02-15T03:31:10;17.90;99.90
8798;DHT22;4435;50.898;4.734;2023-02-15T03:33:44;17.90;99.90
8798;DHT22;4435;50.898;4.734;2023-02-15T03:36:29;17.90;99.90
8798;DHT22;4435;50.898;4.734;2023-02-15T03:42:28;17.90;99.90
8798;DHT22;4435;50.898;4.734;2023-02-15T03:45:11;17.80;99.90
8798;DHT22;4435;50.898;4.734;2023-02-15T03:47:42;17.80;99.90
8798;DHT22;4435;50.898;4.734;2023-02-15T03:50:21;17.80;99.90
8798;DHT22;4435;50.898;4.734;2023-02-15T03:53:11;17.80;99.90
8798;DHT22;4435;50.898;4.734;2023-02-15T03:55:38;17.80;99.90
8798;DHT22;4435;50.898;4.734;2023-02-15T03:58:04;17.80;99.90
8798;DHT22;4435;50.898;4.734;2023-02-15T04:00:59;17.80;99.90
8798;DHT22;4435;50.898;4.734;2023-02-15T04:03:57;17.80;99.90
8798;DHT22;4435;50.898;4.734;2023-02-15T04:06:24;17.80;99.90
8798;DHT22;4435;50.898;4.734;2023-02-15T04:08:50;17.80;99.90
8798;DHT22;4435;50.898;4.734;2023-02-15T04:11:34;17.70;99.90
8798;DHT22;4435;50.898;4.734;2023-02-15T04:13:59;17.70;99.90
8798;DHT22;4435;50.898;4.734;2023-02-15T04:16:45;17.70;99.90
8798;DHT22;4435;50.898;4.734;2023-02-15T04:19:11;17.70;99.90
8798;DHT22;4435;50.898;4.734;2023-02-15T04:21:56;17.70;99.90
8798;DHT22;4435;50.898;4.734;2023-02-15T04:24:40;17.70;99.90
8798;DHT22;4435;50.898;4.734;2023-02-15T04:27:24;17.70;99.90
8798;DHT22;4435;50.898;4.734;2023-02-15T04:29:49;17.70;99.90
8798;DHT22;4435;50.898;4.734;2023-02-15T04:32:15;17.70;99.90
8798;DHT22;4435;50.898;4.734;2023-02-15T04:34:41;17.70;99.90
8798;DHT22;4435;50.898;4.734;2023-02-15T04:37:06;17.70;99.90
8798;DHT22;4435;50.898;4.734;2023-02-15T04:39:32;17.70;99.90
8798;DHT22;4435;50.898;4.734;2023-02-15T04:41:58;17.70;99.90
8798;DHT22;4435;50.898;4.734;2023-02-15T04:44:23;17.70;99.90
8798;DHT22;4435;50.898;4.734;2023-02-15T04:46:49;17.70;99.90
8798;DHT22;4435;50.898;4.734;2023-02-15T04:49:15;17.70;99.90
8798;DHT22;4435;50.898;4.734;2023-02-15T04:51:40;17.60;99.90
8798;DHT22;4435;50.898;4.734;2023-02-15T04:54:06;17.60;99.90
8798;DHT22;4435;50.898;4.734;2023-02-15T04:56:32;17.60;99.90
8798;DHT22;4435;50.898;4.734;2023-02-15T04:59:00;17.60;99.90
8798;DHT22;4435;50.898;4.734;2023-02-15T05:01:26;17.60;99.90
8798;DHT22;4435;50.898;4.734;2023-02-15T05:03:51;17.60;99.90
8798;DHT22;4435;50.898;4.734;2023-02-15T05:06:17;17.60;99.90
8798;DHT22;4435;50.898;4.734;2023-02-15T05:08:43;17.60;99.90
8798;DHT22;4435;50.898;4.734;2023-02-15T05:11:08;17.60;99.90
8798;DHT22;4435;50.898;4.734;2023-02-15T05:13:34;17.60;99.90
8798;DHT22;4435;50.898;4.734;2023-02-15T05:16:00;17.60;99.90
8798;DHT22;4435;50.898;4.734;2023-02-15T05:18:28;17.60;99.90
8798;DHT22;4435;50.898;4.734;2023-02-15T05:20:54;17.60;99.90
8798;DHT22;4435;50.898;4.734;2023-02-15T05:23:20;17.50;99.90
8798;DHT22;4435;50.898;4.734;2023-02-15T05:25:49;17.50;99.90
8798;DHT22;4435;50.898;4.734;2023-02-15T05:28:35;17.50;99.90
8798;DHT22;4435;50.898;4.734;2023-02-15T05:31:11;17.50;99.90
8798;DHT22;4435;50.898;4.734;2023-02-15T05:33:37;17.50;99.90
8798;DHT22;4435;50.898;4.734;2023-02-15T05:36:03;17.50;99.90
8798;DHT22;4435;50.898;4.734;2023-02-15T05:38:30;17.50;99.90
8798;DHT22;4435;50.898;4.734;2023-02-15T05:40:56;17.50;99.90
8798;DHT22;4435;50.898;4.734;2023-02-15T05:43:22;17.50;99.90
8798;DHT22;4435;50.898;4.734;2023-02-15T05:45:50;17.40;99.90
8798;DHT22;4435;50.898;4.734;2023-02-15T05:48:17;17.50;99.90
8798;DHT22;4435;50.898;4.734;2023-02-15T05:50:43;17.40;99.90
8798;DHT22;4435;50.898;4.734;2023-02-15T05:53:09;17.50;99.90
8798;DHT22;4435;50.898;4.734;2023-02-15T05:55:37;17.50;99.90
8798;DHT22;4435;50.898;4.734;2023-02-15T05:58:04;17.50;99.90
8798;DHT22;4435;50.898;4.734;2023-02-15T06:00:29;17.40;99.90
8798;DHT22;4435;50.898;4.734;2023-02-15T06:02:55;17.40;99.90
8798;DHT22;4435;50.898;4.734;2023-02-15T06:05:21;17.40;99.90
8798;DHT22;4435;50.898;4.734;2023-02-15T06:07:47;17.40;99.90
8798;DHT22;4435;50.898;4.734;2023-02-15T06:10:12;17.40;99.90
8798;DHT22;4435;50.898;4.734;2023-02-15T06:12:38;17.40;99.90
8798;DHT22;4435;50.898;4.734;2023-02-15T06:15:04;17.40;99.90
8798;DHT22;4435;50.898;4.734;2023-02-15T06:17:30;17.40;99.90
8798;DHT22;4435;50.898;4.734;2023-02-15T06:19:55;17.40;99.90
8798;DHT22;4435;50.898;4.734;2023-02-15T06:22:21;17.40;99.90
8798;DHT22;4435;50.898;4.734;2023-02-15T06:24:47;17.40;99.90
8798;DHT22;4435;50.898;4.734;2023-02-15T06:27:13;17.40;99.90
8798;DHT22;4435;50.898;4.734;2023-02-15T06:29:38;17.30;99.90
8798;DHT22;4435;50.898;4.734;2023-02-15T06:32:04;17.30;99.90
8798;DHT22;4435;50.898;4.734;2023-02-15T06:34:30;17.30;99.90
8798;DHT22;4435;50.898;4.734;2023-02-15T06:36:56;17.40;99.90
8798;DHT22;4435;50.898;4.734;2023-02-15T06:39:22;17.30;99.90
8798;DHT22;4435;50.898;4.734;2023-02-15T06:41:48;17.30;99.90
8798;DHT22;4435;50.898;4.734;2023-02-15T06:44:13;17.40;99.90
8798;DHT22;4435;50.898;4.734;2023-02-15T06:46:39;17.40;99.90
8798;DHT22;4435;50.898;4.734;2023-02-15T06:49:05;17.40;99.90
8798;DHT22;4435;50.898;4.734;2023-02-15T06:51:31;17.30;99.90
8798;DHT22;4435;50.898;4.734;2023-02-15T06:53:56;17.30;99.90
8798;DHT22;4435;50.898;4.734;2023-02-15T06:56:22;17.40;99.90
8798;DHT22;4435;50.898;4.734;2023-02-15T06:58:48;17.30;99.90
8798;DHT22;4435;50.898;4.734;2023-02-15T07:01:18;17.30;99.90
8798;DHT22;4435;50.898;4.734;2023-02-15T07:03:44;17.30;99.90
8798;DHT22;4435;50.898;4.734;2023-02-15T07:06:10;17.30;99.90
8798;DHT22;4435;50.898;4.734;2023-02-15T07:08:37;17.30;99.90
8798;DHT22;4435;50.898;4.734;2023-02-15T07:11:04;17.30;99.90
8798;DHT22;4435;50.898;4.734;2023-02-15T07:13:49;17.30;99.90
8798;DHT22;4435;50.898;4.734;2023-02-15T07:16:14;17.30;99.90
8798;DHT22;4435;50.898;4.734;2023-02-15T07:18:40;17.30;99.90
8798;DHT22;4435;50.898;4.734;2023-02-15T07:21:07;17.30;99.90
8798;DHT22;4435;50.898;4.734;2023-02-15T07:23:37;17.20;99.90
8798;DHT22;4435;50.898;4.734;2023-02-15T07:26:03;17.30;99.90
8798;DHT22;4435;50.898;4.734;2023-02-15T07:28:32;17.30;99.90
8798;DHT22;4435;50.898;4.734;2023-02-15T07:30:58;17.30;99.90
8798;DHT22;4435;50.898;4.734;2023-02-15T07:33:24;17.30;99.90
8798;DHT22;4435;50.898;4.734;2023-02-15T07:35:52;17.30;99.90
8798;DHT22;4435;50.898;4.734;2023-02-15T07:38:18;17.30;99.90
8798;DHT22;4435;50.898;4.734;2023-02-15T07:40:45;17.30;99.90
8798;DHT22;4435;50.898;4.734;2023-02-15T07:43:11;17.30;99.90
8798;DHT22;4435;50.898;4.734;2023-02-15T07:45:37;17.30;99.90
8798;DHT22;4435;50.898;4.734;2023-02-15T07:48:04;17.30;99.90
8798;DHT22;4435;50.898;4.734;2023-02-15T07:50:31;17.40;99.90
8798;DHT22;4435;50.898;4.734;2023-02-15T07:52:57;17.30;99.90
8798;DHT22;4435;50.898;4.734;2023-02-15T07:55:23;17.40;99.90
8798;DHT22;4435;50.898;4.734;2023-02-15T07:57:50;17.40;99.90
8798;DHT22;4435;50.898;4.734;2023-02-15T08:00:18;17.40;99.90
8798;DHT22;4435;50.898;4.734;2023-02-15T08:02:56;17.40;99.90
8798;DHT22;4435;50.898;4.734;2023-02-15T08:05:42;17.40;99.90
8798;DHT22;4435;50.898;4.734;2023-02-15T08:08:11;17.40;99.90
8798;DHT22;4435;50.898;4.734;2023-02-15T08:16:40;17.40;99.90
8798;DHT22;4435;50.898;4.734;2023-02-15T08:19:24;17.40;99.90
8798;DHT22;4435;50.898;4.734;2023-02-15T08:21:55;17.40;99.90
8798;DHT22;4435;50.898;4.734;2023-02-15T08:24:30;17.40;99.90
8798;DHT22;4435;50.898;4.734;2023-02-15T08:26:56;17.40;99.90
8798;DHT22;4435;50.898;4.734;2023-02-15T08:29:25;17.40;99.90
8798;DHT22;4435;50.898;4.734;2023-02-15T08:32:01;17.40;99.90
8798;DHT22;4435;50.898;4.734;2023-02-15T08:34:30;17.50;99.90
8798;DHT22;4435;50.898;4.734;2023-02-15T08:36:56;17.50;99.90
8798;DHT22;4435;50.898;4.734;2023-02-15T08:39:22;17.50;99.90
8798;DHT22;4435;50.898;4.734;2023-02-15T08:41:48;17.60;99.90
8798;DHT22;4435;50.898;4.734;2023-02-15T08:44:16;17.70;99.90
8798;DHT22;4435;50.898;4.734;2023-02-15T08:46:43;17.80;99.90
8798;DHT22;4435;50.898;4.734;2023-02-15T08:49:12;18.00;99.90
8798;DHT22;4435;50.898;4.734;2023-02-15T08:51:39;18.10;99.90
8798;DHT22;4435;50.898;4.734;2023-02-15T08:54:10;18.20;99.90
8798;DHT22;4435;50.898;4.734;2023-02-15T08:56:39;18.30;99.90
8798;DHT22;4435;50.898;4.734;2023-02-15T08:59:06;18.40;99.90
8798;DHT22;4435;50.898;4.734;2023-02-15T09:01:34;18.60;99.90
8798;DHT22;4435;50.898;4.734;2023-02-15T09:04:05;18.70;99.90
8798;DHT22;4435;50.898;4.734;2023-02-15T09:06:34;18.80;99.90
8798;DHT22;4435;50.898;4.734;2023-02-15T09:09:00;18.80;99.90
8798;DHT22;4435;50.898;4.734;2023-02-15T09:11:32;18.70;99.90
8798;DHT22;4435;50.898;4.734;2023-02-15T09:14:07;18.70;99.90
8798;DHT22;4435;50.898;4.734;2023-02-15T09:16:36;18.50;99.90
8798;DHT22;4435;50.898;4.734;2023-02-15T09:19:02;18.50;99.90
8798;DHT22;4435;50.898;4.734;2023-02-15T09:21:31;18.50;99.90
8798;DHT22;4435;50.898;4.734;2023-02-15T09:23:59;18.40;99.90
8798;DHT22;4435;50.898;4.734;2023-02-15T09:26:26;18.40;99.90
8798;DHT22;4435;50.898;4.734;2023-02-15T09:28:55;18.50;99.90
8798;DHT22;4435;50.898;4.734;2023-02-15T09:31:24;18.50;99.90
8798;DHT22;4435;50.898;4.734;2023-02-15T09:33:50;18.60;99.90
8798;DHT22;4435;50.898;4.734;2023-02-15T09:36:22;18.60;99.90
8798;DHT22;4435;50.898;4.734;2023-02-15T09:38:56;18.60;99.90
8798;DHT22;4435;50.898;4.734;2023-02-15T09:47:14;18.80;99.90
8798;DHT22;4435;50.898;4.734;2023-02-15T09:50:00;18.90;99.90
8798;DHT22;4435;50.898;4.734;2023-02-15T09:57:34;19.20;99.90
8798;DHT22;4435;50.898;4.734;2023-02-15T10:21:33;19.80;99.90
8798;DHT22;4435;50.898;4.734;2023-02-15T10:27:12;19.90;99.90
8798;DHT22;4435;50.898;4.734;2023-02-15T10:32:24;19.90;99.90
8798;DHT22;4435;50.898;4.734;2023-02-15T10:35:26;20.00;99.90
8798;DHT22;4435;50.898;4.734;2023-02-15T10:43:20;20.10;99.90
8798;DHT22;4435;50.898;4.734;2023-02-15T10:46:04;20.10;99.90
8798;DHT22;4435;50.898;4.734;2023-02-15T10:48:58;20.20;99.90
8798;DHT22;4435;50.898;4.734;2023-02-15T10:54:41;20.20;99.90
8798;DHT22;4435;50.898;4.734;2023-02-15T10:57:36;20.30;99.90
8798;DHT22;4435;50.898;4.734;2023-02-15T11:00:16;20.30;99.90
8798;DHT22;4435;50.898;4.734;2023-02-15T11:05:35;20.40;99.90
8798;DHT22;4435;50.898;4.734;2023-02-15T11:08:07;20.40;99.90
8798;DHT22;4435;50.898;4.734;2023-02-15T11:10:53;20.50;99.90
8798;DHT22;4435;50.898;4.734;2023-02-15T11:13:23;20.50;99.90
8798;DHT22;4435;50.898;4.734;2023-02-15T11:16:01;20.60;99.90
8798;DHT22;4435;50.898;4.734;2023-02-15T11:21:28;20.70;99.90
8798;DHT22;4435;50.898;4.734;2023-02-15T11:23:59;20.70;99.90
8798;DHT22;4435;50.898;4.734;2023-02-15T11:26:34;20.70;99.90
8798;DHT22;4435;50.898;4.734;2023-02-15T11:31:56;20.80;99.90
8798;DHT22;4435;50.898;4.734;2023-02-15T11:34:33;20.80;99.90
8798;DHT22;4435;50.898;4.734;2023-02-15T11:37:05;20.90;99.90
8798;DHT22;4435;50.898;4.734;2023-02-15T11:39:33;20.90;99.90
8798;DHT22;4435;50.898;4.734;2023-02-15T11:42:04;20.90;99.90
8798;DHT22;4435;50.898;4.734;2023-02-15T11:44:39;20.90;99.90
8798;DHT22;4435;50.898;4.734;2023-02-15T11:47:23;20.90;99.90
8798;DHT22;4435;50.898;4.734;2023-02-15T11:49:49;20.90;99.90
8798;DHT22;4435;50.898;4.734;2023-02-15T11:52:16;20.90;99.90
8798;DHT22;4435;50.898;4.734;2023-02-15T11:54:46;20.90;99.90
8798;DHT22;4435;50.898;4.734;2023-02-15T11:59:56;21.00;99.90
8798;DHT22;4435;50.898;4.734;2023-02-15T12:02:23;21.00;99.90
8798;DHT22;4435;50.898;4.734;2023-02-15T12:04:58;21.00;99.90
8798;DHT22;4435;50.898;4.734;2023-02-15T12:07:26;21.00;99.90
8798;DHT22;4435;50.898;4.734;2023-02-15T12:12:37;21.00;99.90
8798;DHT22;4435;50.898;4.734;2023-02-15T12:15:10;21.00;99.90
8798;DHT22;4435;50.898;4.734;2023-02-15T12:17:53;21.00;99.90
8798;DHT22;4435;50.898;4.734;2023-02-15T12:20:21;21.00;99.90
8798;DHT22;4435;50.898;4.734;2023-02-15T12:23:14;21.00;99.90
8798;DHT22;4435;50.898;4.734;2023-02-15T12:25:48;21.00;99.90
8798;DHT22;4435;50.898;4.734;2023-02-15T12:30:55;21.00;99.90
8798;DHT22;4435;50.898;4.734;2023-02-15T12:36:15;21.00;99.90
8798;DHT22;4435;50.898;4.734;2023-02-15T12:38:42;21.00;99.90
8798;DHT22;4435;50.898;4.734;2023-02-15T12:41:25;20.90;99.90
8798;DHT22;4435;50.898;4.734;2023-02-15T12:44:19;20.90;99.90
8798;DHT22;4435;50.898;4.734;2023-02-15T12:49:37;20.90;99.90
8798;DHT22;4435;50.898;4.734;2023-02-15T12:52:24;20.90;99.90
8798;DHT22;4435;50.898;4.734;2023-02-15T12:54:50;20.80;99.90
8798;DHT22;4435;50.898;4.734;2023-02-15T12:59:55;20.80;99.90
8798;DHT22;4435;50.898;4.734;2023-02-15T13:02:28;20.80;99.90
8798;DHT22;4435;50.898;4.734;2023-02-15T13:04:56;20.80;99.90
8798;DHT22;4435;50.898;4.734;2023-02-15T13:07:33;20.80;99.90
8798;DHT22;4435;50.898;4.734;2023-02-15T13:09:59;20.80;99.90
8798;DHT22;4435;50.898;4.734;2023-02-15T13:12:27;20.80;99.90
8798;DHT22;4435;50.898;4.734;2023-02-15T13:14:54;20.80;99.90
8798;DHT22;4435;50.898;4.734;2023-02-15T13:17:25;20.70;99.90
8798;DHT22;4435;50.898;4.734;2023-02-15T13:19:57;20.80;99.90
8798;DHT22;4435;50.898;4.734;2023-02-15T13:22:33;20.80;99.90
8798;DHT22;4435;50.898;4.734;2023-02-15T13:25:09;20.80;99.90
8798;DHT22;4435;50.898;4.734;2023-02-15T13:27:39;20.90;99.90
8798;DHT22;4435;50.898;4.734;2023-02-15T13:30:45;20.90;99.90
8798;DHT22;4435;50.898;4.734;2023-02-15T13:33:33;20.90;99.90
8798;DHT22;4435;50.898;4.734;2023-02-15T13:44:29;20.90;99.90
8798;DHT22;4435;50.898;4.734;2023-02-15T13:47:05;20.80;99.90
8798;DHT22;4435;50.898;4.734;2023-02-15T13:52:34;20.80;99.90
8798;DHT22;4435;50.898;4.734;2023-02-15T13:57:56;20.80;99.90
8798;DHT22;4435;50.898;4.734;2023-02-15T14:00:36;20.80;99.90
8798;DHT22;4435;50.898;4.734;2023-02-15T14:08:36;20.70;99.90
8798;DHT22;4435;50.898;4.734;2023-02-15T14:11:11;20.70;99.90
8798;DHT22;4435;50.898;4.734;2023-02-15T14:14:26;20.70;99.90
8798;DHT22;4435;50.898;4.734;2023-02-15T14:19:35;20.60;99.90
8798;DHT22;4435;50.898;4.734;2023-02-15T14:22:25;20.60;99.90
8798;DHT22;4435;50.898;4.734;2023-02-15T14:30:20;20.60;99.90
8798;DHT22;4435;50.898;4.734;2023-02-15T14:32:51;20.50;99.90
8798;DHT22;4435;50.898;4.734;2023-02-15T14:35:20;20.60;99.90
8798;DHT22;4435;50.898;4.734;2023-02-15T14:46:38;20.50;99.90
8798;DHT22;4435;50.898;4.734;2023-02-15T14:48:49;20.50;99.90
8798;DHT22;4435;50.898;4.734;2023-02-15T14:59:50;20.40;99.90
8798;DHT22;4435;50.898;4.734;2023-02-15T15:02:41;20.40;99.90
8798;DHT22;4435;50.898;4.734;2023-02-15T15:05:32;20.30;99.90
8798;DHT22;4435;50.898;4.734;2023-02-15T15:07:59;20.30;99.90
8798;DHT22;4435;50.898;4.734;2023-02-15T15:10:39;20.30;99.90
8798;DHT22;4435;50.898;4.734;2023-02-15T15:15:56;20.30;99.90
8798;DHT22;4435;50.898;4.734;2023-02-15T15:18:45;20.20;99.90
8798;DHT22;4435;50.898;4.734;2023-02-15T15:21:11;20.20;99.90
8798;DHT22;4435;50.898;4.734;2023-02-15T15:23:56;20.20;99.90
8798;DHT22;4435;50.898;4.734;2023-02-15T15:26:31;20.20;99.90
8798;DHT22;4435;50.898;4.734;2023-02-15T15:29:00;20.20;99.90
8798;DHT22;4435;50.898;4.734;2023-02-15T15:31:50;20.20;99.90
8798;DHT22;4435;50.898;4.734;2023-02-15T15:37:19;20.10;99.90
8798;DHT22;4435;50.898;4.734;2023-02-15T15:48:38;20.00;99.90
8798;DHT22;4435;50.898;4.734;2023-02-15T15:51:41;20.00;99.90
8798;DHT22;4435;50.898;4.734;2023-02-15T15:54:21;20.00;99.90
8798;DHT22;4435;50.898;4.734;2023-02-15T15:56:51;20.00;99.90
8798;DHT22;4435;50.898;4.734;2023-02-15T15:59:27;19.90;99.90
8798;DHT22;4435;50.898;4.734;2023-02-15T16:01:53;19.90;99.90
8798;DHT22;4435;50.898;4.734;2023-02-15T16:04:31;19.90;99.90
8798;DHT22;4435;50.898;4.734;2023-02-15T16:07:42;19.90;99.90
8798;DHT22;4435;50.898;4.734;2023-02-15T16:10:05;19.90;99.90
8798;DHT22;4435;50.898;4.734;2023-02-15T16:12:36;19.90;99.90
8798;DHT22;4435;50.898;4.734;2023-02-15T16:15:17;19.80;99.90
8798;DHT22;4435;50.898;4.734;2023-02-15T16:17:47;19.80;99.90
8798;DHT22;4435;50.898;4.734;2023-02-15T16:20:20;19.70;99.90
8798;DHT22;4435;50.898;4.734;2023-02-15T16:22:49;19.80;99.90
8798;DHT22;4435;50.898;4.734;2023-02-15T16:28:06;19.70;99.90
8798;DHT22;4435;50.898;4.734;2023-02-15T16:30:34;19.70;99.90
8798;DHT22;4435;50.898;4.734;2023-02-15T16:35:35;19.60;99.90
8798;DHT22;4435;50.898;4.734;2023-02-15T16:38:02;19.60;99.90
8798;DHT22;4435;50.898;4.734;2023-02-15T16:43:02;19.50;99.90
8798;DHT22;4435;50.898;4.734;2023-02-15T16:45:31;19.50;99.90
8798;DHT22;4435;50.898;4.734;2023-02-15T16:47:59;19.50;99.90
8798;DHT22;4435;50.898;4.734;2023-02-15T16:50:32;19.50;99.90
8798;DHT22;4435;50.898;4.734;2023-02-15T16:52:59;19.40;99.90
8798;DHT22;4435;50.898;4.734;2023-02-15T16:55:33;19.40;99.90
8798;DHT22;4435;50.898;4.734;2023-02-15T16:58:02;19.40;99.90
8798;DHT22;4435;50.898;4.734;2023-02-15T17:00:32;19.40;99.90
8798;DHT22;4435;50.898;4.734;2023-02-15T17:03:05;19.40;99.90
8798;DHT22;4435;50.898;4.734;2023-02-15T17:05:52;19.40;99.90
8798;DHT22;4435;50.898;4.734;2023-02-15T17:08:25;19.40;99.90
8798;DHT22;4435;50.898;4.734;2023-02-15T17:11:37;19.40;99.90
8798;DHT22;4435;50.898;4.734;2023-02-15T17:16:35;19.30;99.90
8798;DHT22;4435;50.898;4.734;2023-02-15T17:19:08;19.30;99.90
8798;DHT22;4435;50.898;4.734;2023-02-15T17:21:41;19.30;99.90
8798;DHT22;4435;50.898;4.734;2023-02-15T17:24:16;19.30;99.90
8798;DHT22;4435;50.898;4.734;2023-02-15T17:26:43;19.30;99.90
8798;DHT22;4435;50.898;4.734;2023-02-15T17:31:37;19.30;99.90
8798;DHT22;4435;50.898;4.734;2023-02-15T17:34:03;19.30;99.90
8798;DHT22;4435;50.898;4.734;2023-02-15T17:36:31;19.30;99.90
8798;DHT22;4435;50.898;4.734;2023-02-15T17:41:24;19.20;99.90
8798;DHT22;4435;50.898;4.734;2023-02-15T17:43:50;19.20;99.90
8798;DHT22;4435;50.898;4.734;2023-02-15T17:46:16;19.20;99.90
8798;DHT22;4435;50.898;4.734;2023-02-15T17:48:47;19.10;99.90
8798;DHT22;4435;50.898;4.734;2023-02-15T17:51:14;19.10;99.90
8798;DHT22;4435;50.898;4.734;2023-02-15T17:53:41;19.10;99.90
8798;DHT22;4435;50.898;4.734;2023-02-15T17:56:27;19.00;99.90
8798;DHT22;4435;50.898;4.734;2023-02-15T17:58:52;19.00;99.90
8798;DHT22;4435;50.898;4.734;2023-02-15T18:01:20;19.00;99.90
8798;DHT22;4435;50.898;4.734;2023-02-15T18:04:07;19.00;99.90
8798;DHT22;4435;50.898;4.734;2023-02-15T18:06:52;19.00;99.90
8798;DHT22;4435;50.898;4.734;2023-02-15T18:09:36;18.90;99.90
8798;DHT22;4435;50.898;4.734;2023-02-15T18:12:24;18.90;99.90
8798;DHT22;4435;50.898;4.734;2023-02-15T18:14:51;18.90;99.90
8798;DHT22;4435;50.898;4.734;2023-02-15T18:17:24;18.90;99.90
8798;DHT22;4435;50.898;4.734;2023-02-15T18:19:52;18.80;99.90
8798;DHT22;4435;50.898;4.734;2023-02-15T18:22:19;18.80;99.90
8798;DHT22;4435;50.898;4.734;2023-02-15T18:24:48;18.80;99.90
8798;DHT22;4435;50.898;4.734;2023-02-15T18:27:15;18.80;99.90
8798;DHT22;4435;50.898;4.734;2023-02-15T18:29:47;18.80;99.90
8798;DHT22;4435;50.898;4.734;2023-02-15T18:32:20;18.80;99.90
8798;DHT22;4435;50.898;4.734;2023-02-15T18:34:47;18.80;99.90
8798;DHT22;4435;50.898;4.734;2023-02-15T18:37:17;18.80;99.90
8798;DHT22;4435;50.898;4.734;2023-02-15T18:39:44;18.80;99.90
8798;DHT22;4435;50.898;4.734;2023-02-15T18:42:21;18.80;99.90
8798;DHT22;4435;50.898;4.734;2023-02-15T18:44:52;18.80;99.90
8798;DHT22;4435;50.898;4.734;2023-02-15T18:47:18;18.90;99.90
8798;DHT22;4435;50.898;4.734;2023-02-15T18:49:44;18.90;99.90
8798;DHT22;4435;50.898;4.734;2023-02-15T18:52:19;18.90;99.90
8798;DHT22;4435;50.898;4.734;2023-02-15T18:54:46;18.90;99.90
8798;DHT22;4435;50.898;4.734;2023-02-15T18:57:14;18.80;99.90
8798;DHT22;4435;50.898;4.734;2023-02-15T18:59:41;18.80;99.90
8798;DHT22;4435;50.898;4.734;2023-02-15T19:02:17;18.80;99.90
8798;DHT22;4435;50.898;4.734;2023-02-15T19:04:44;18.80;99.90
8798;DHT22;4435;50.898;4.734;2023-02-15T19:07:18;18.80;99.90
8798;DHT22;4435;50.898;4.734;2023-02-15T19:09:47;18.80;99.90
8798;DHT22;4435;50.898;4.734;2023-02-15T19:12:14;18.80;99.90
8798;DHT22;4435;50.898;4.734;2023-02-15T19:14:39;18.80;99.90
8798;DHT22;4435;50.898;4.734;2023-02-15T19:17:13;18.80;99.90
8798;DHT22;4435;50.898;4.734;2023-02-15T19:19:39;18.90;99.90
8798;DHT22;4435;50.898;4.734;2023-02-15T19:22:05;18.90;99.90
8798;DHT22;4435;50.898;4.734;2023-02-15T19:24:36;18.90;99.90
8798;DHT22;4435;50.898;4.734;2023-02-15T19:27:05;18.90;99.90
8798;DHT22;4435;50.898;4.734;2023-02-15T19:29:31;18.90;99.90
8798;DHT22;4435;50.898;4.734;2023-02-15T19:31:57;18.90;99.90
8798;DHT22;4435;50.898;4.734;2023-02-15T19:34:23;19.00;99.90